ADDS TAF Data INFO
IDs: Format: Raw Decoded Include METARs

Data at: 2310 UTC 17 Nov 2017

TAF COR ETSI 171151Z 1712/1721 VRB02KT 6000 NSW SCT010 OVC015
  TEMPO 1712/1716 31003KT 4000 -RADZ BKN008 OVC012
  BECMG 1716/1719 VRB01KT 2000 -DZ OVC003 CANCEL 1300